sensor_id;sensor_type;location;lat;lon;timestamp;P1;durP1;ratioP1;P2;durP2;ratioP2
21825;SDS011;11075;47.944;11.776;2023-06-22T00:01:18;13.82;;;7.57;;
21825;SDS011;11075;47.944;11.776;2023-06-22T00:03:46;17.67;;;7.13;;
21825;SDS011;11075;47.944;11.776;2023-06-22T00:06:14;14.25;;;7.43;;
21825;SDS011;11075;47.944;11.776;2023-06-22T00:08:41;17.65;;;7.55;;
21825;SDS011;11075;47.944;11.776;2023-06-22T00:11:08;20.00;;;8.60;;
21825;SDS011;11075;47.944;11.776;2023-06-22T00:13:34;16.60;;;8.75;;
21825;SDS011;11075;47.944;11.776;2023-06-22T00:16:02;17.25;;;9.13;;
21825;SDS011;11075;47.944;11.776;2023-06-22T00:18:29;17.67;;;9.27;;
21825;SDS011;11075;47.944;11.776;2023-06-22T00:20:57;20.55;;;8.85;;
21825;SDS011;11075;47.944;11.776;2023-06-22T00:23:25;17.92;;;9.00;;
21825;SDS011;11075;47.944;11.776;2023-06-22T00:25:52;21.20;;;8.48;;
21825;SDS011;11075;47.944;11.776;2023-06-22T00:28:19;17.45;;;8.63;;
21825;SDS011;11075;47.944;11.776;2023-06-22T00:30:46;19.50;;;8.93;;
21825;SDS011;11075;47.944;11.776;2023-06-22T00:33:15;14.25;;;8.68;;
21825;SDS011;11075;47.944;11.776;2023-06-22T00:35:43;20.02;;;9.18;;
21825;SDS011;11075;47.944;11.776;2023-06-22T00:38:10;15.93;;;8.80;;
21825;SDS011;11075;47.944;11.776;2023-06-22T00:40:37;17.00;;;9.27;;
21825;SDS011;11075;47.944;11.776;2023-06-22T00:43:05;18.42;;;9.30;;
21825;SDS011;11075;47.944;11.776;2023-06-22T00:45:32;20.88;;;9.23;;
21825;SDS011;11075;47.944;11.776;2023-06-22T00:47:59;18.80;;;9.30;;
21825;SDS011;11075;47.944;11.776;2023-06-22T00:50:28;24.92;;;9.90;;
21825;SDS011;11075;47.944;11.776;2023-06-22T00:53:01;21.75;;;9.45;;
21825;SDS011;11075;47.944;11.776;2023-06-22T00:55:35;14.98;;;10.00;;
21825;SDS011;11075;47.944;11.776;2023-06-22T00:58:04;17.98;;;9.35;;
21825;SDS011;11075;47.944;11.776;2023-06-22T01:00:34;20.77;;;8.90;;
21825;SDS011;11075;47.944;11.776;2023-06-22T01:03:01;20.05;;;8.85;;
21825;SDS011;11075;47.944;11.776;2023-06-22T01:05:29;19.90;;;9.98;;
21825;SDS011;11075;47.944;11.776;2023-06-22T01:08:04;21.20;;;10.02;;
21825;SDS011;11075;47.944;11.776;2023-06-22T01:13:01;18.88;;;9.85;;
21825;SDS011;11075;47.944;11.776;2023-06-22T01:15:32;20.20;;;9.55;;
21825;SDS011;11075;47.944;11.776;2023-06-22T01:18:20;18.88;;;9.90;;
21825;SDS011;11075;47.944;11.776;2023-06-22T01:20:54;17.10;;;9.90;;
21825;SDS011;11075;47.944;11.776;2023-06-22T01:23:39;19.98;;;10.20;;
21825;SDS011;11075;47.944;11.776;2023-06-22T01:26:18;20.05;;;10.40;;
21825;SDS011;11075;47.944;11.776;2023-06-22T01:28:49;18.73;;;9.57;;
21825;SDS011;11075;47.944;11.776;2023-06-22T01:31:27;18.75;;;10.25;;
21825;SDS011;11075;47.944;11.776;2023-06-22T01:34:00;20.25;;;10.30;;
21825;SDS011;11075;47.944;11.776;2023-06-22T01:36:29;22.92;;;10.25;;
21825;SDS011;11075;47.944;11.776;2023-06-22T01:38:57;17.60;;;9.98;;
21825;SDS011;11075;47.944;11.776;2023-06-22T01:41:25;17.42;;;10.50;;
21825;SDS011;11075;47.944;11.776;2023-06-22T01:43:54;17.70;;;9.40;;
21825;SDS011;11075;47.944;11.776;2023-06-22T01:46:22;16.88;;;8.18;;
21825;SDS011;11075;47.944;11.776;2023-06-22T01:48:50;15.70;;;8.65;;
21825;SDS011;11075;47.944;11.776;2023-06-22T01:51:17;17.13;;;9.02;;
21825;SDS011;11075;47.944;11.776;2023-06-22T01:53:44;16.90;;;8.30;;
21825;SDS011;11075;47.944;11.776;2023-06-22T01:56:10;12.60;;;6.75;;
21825;SDS011;11075;47.944;11.776;2023-06-22T02:01:28;15.18;;;7.47;;
21825;SDS011;11075;47.944;11.776;2023-06-22T02:04:03;13.82;;;7.75;;
21825;SDS011;11075;47.944;11.776;2023-06-22T02:06:38;16.17;;;6.88;;
21825;SDS011;11075;47.944;11.776;2023-06-22T02:09:12;19.73;;;7.57;;
21825;SDS011;11075;47.944;11.776;2023-06-22T02:11:44;11.70;;;7.20;;
21825;SDS011;11075;47.944;11.776;2023-06-22T02:14:13;14.05;;;6.75;;
21825;SDS011;11075;47.944;11.776;2023-06-22T02:16:45;17.38;;;7.60;;
21825;SDS011;11075;47.944;11.776;2023-06-22T02:19:13;13.35;;;7.65;;
21825;SDS011;11075;47.944;11.776;2023-06-22T02:21:45;14.85;;;7.05;;
21825;SDS011;11075;47.944;11.776;2023-06-22T02:24:12;14.73;;;6.97;;
21825;SDS011;11075;47.944;11.776;2023-06-22T02:26:39;14.13;;;6.50;;
21825;SDS011;11075;47.944;11.776;2023-06-22T02:29:08;12.15;;;6.30;;
21825;SDS011;11075;47.944;11.776;2023-06-22T02:31:35;13.65;;;6.40;;
21825;SDS011;11075;47.944;11.776;2023-06-22T02:34:02;14.05;;;7.32;;
21825;SDS011;11075;47.944;11.776;2023-06-22T02:36:29;20.42;;;6.88;;
21825;SDS011;11075;47.944;11.776;2023-06-22T02:38:59;13.90;;;6.75;;
21825;SDS011;11075;47.944;11.776;2023-06-22T02:41:29;13.95;;;6.35;;
21825;SDS011;11075;47.944;11.776;2023-06-22T02:43:56;14.10;;;6.43;;
21825;SDS011;11075;47.944;11.776;2023-06-22T02:46:23;16.70;;;7.03;;
21825;SDS011;11075;47.944;11.776;2023-06-22T02:48:51;10.95;;;6.18;;
21825;SDS011;11075;47.944;11.776;2023-06-22T02:51:18;13.13;;;6.80;;
21825;SDS011;11075;47.944;11.776;2023-06-22T02:53:45;14.20;;;7.10;;
21825;SDS011;11075;47.944;11.776;2023-06-22T02:56:14;19.02;;;7.45;;
21825;SDS011;11075;47.944;11.776;2023-06-22T02:58:42;11.52;;;7.25;;
21825;SDS011;11075;47.944;11.776;2023-06-22T03:01:11;11.10;;;6.60;;
21825;SDS011;11075;47.944;11.776;2023-06-22T03:03:44;11.55;;;7.28;;
21825;SDS011;11075;47.944;11.776;2023-06-22T03:06:11;14.57;;;7.05;;
21825;SDS011;11075;47.944;11.776;2023-06-22T03:08:41;11.98;;;6.57;;
21825;SDS011;11075;47.944;11.776;2023-06-22T03:11:11;11.73;;;6.43;;
21825;SDS011;11075;47.944;11.776;2023-06-22T03:13:37;11.15;;;6.95;;
21825;SDS011;11075;47.944;11.776;2023-06-22T03:16:06;17.00;;;7.20;;
21825;SDS011;11075;47.944;11.776;2023-06-22T03:18:32;11.43;;;6.75;;
21825;SDS011;11075;47.944;11.776;2023-06-22T03:20:59;15.75;;;6.57;;
21825;SDS011;11075;47.944;11.776;2023-06-22T03:23:30;10.50;;;6.75;;
21825;SDS011;11075;47.944;11.776;2023-06-22T03:25:57;12.52;;;7.85;;
21825;SDS011;11075;47.944;11.776;2023-06-22T03:28:24;11.07;;;6.97;;
21825;SDS011;11075;47.944;11.776;2023-06-22T03:30:50;13.05;;;7.07;;
21825;SDS011;11075;47.944;11.776;2023-06-22T03:33:17;13.80;;;7.15;;
21825;SDS011;11075;47.944;11.776;2023-06-22T03:35:44;13.45;;;6.97;;
21825;SDS011;11075;47.944;11.776;2023-06-22T03:38:11;18.02;;;6.85;;
21825;SDS011;11075;47.944;11.776;2023-06-22T03:40:37;14.35;;;7.03;;
21825;SDS011;11075;47.944;11.776;2023-06-22T03:43:05;12.73;;;7.07;;
21825;SDS011;11075;47.944;11.776;2023-06-22T03:45:31;11.65;;;6.75;;
21825;SDS011;11075;47.944;11.776;2023-06-22T03:47:58;11.23;;;7.20;;
21825;SDS011;11075;47.944;11.776;2023-06-22T03:50:25;16.65;;;7.05;;
21825;SDS011;11075;47.944;11.776;2023-06-22T03:52:53;12.60;;;8.05;;
21825;SDS011;11075;47.944;11.776;2023-06-22T03:55:20;15.27;;;6.93;;
21825;SDS011;11075;47.944;11.776;2023-06-22T03:57:47;10.85;;;6.40;;
21825;SDS011;11075;47.944;11.776;2023-06-22T04:00:13;12.73;;;7.18;;
21825;SDS011;11075;47.944;11.776;2023-06-22T04:02:42;11.63;;;7.00;;
21825;SDS011;11075;47.944;11.776;2023-06-22T04:05:09;14.10;;;8.05;;
21825;SDS011;11075;47.944;11.776;2023-06-22T04:07:36;14.68;;;7.72;;
21825;SDS011;11075;47.944;11.776;2023-06-22T04:10:04;11.07;;;6.97;;
21825;SDS011;11075;47.944;11.776;2023-06-22T04:12:31;11.45;;;6.95;;
21825;SDS011;11075;47.944;11.776;2023-06-22T04:14:58;13.32;;;7.22;;
21825;SDS011;11075;47.944;11.776;2023-06-22T04:17:24;15.23;;;7.65;;
21825;SDS011;11075;47.944;11.776;2023-06-22T04:19:51;15.52;;;8.05;;
21825;SDS011;11075;47.944;11.776;2023-06-22T04:22:18;13.18;;;7.68;;
21825;SDS011;11075;47.944;11.776;2023-06-22T04:24:45;12.82;;;7.75;;
21825;SDS011;11075;47.944;11.776;2023-06-22T04:27:12;15.18;;;8.20;;
21825;SDS011;11075;47.944;11.776;2023-06-22T04:29:39;13.13;;;7.70;;
21825;SDS011;11075;47.944;11.776;2023-06-22T04:32:15;19.70;;;8.73;;
21825;SDS011;11075;47.944;11.776;2023-06-22T04:34:42;16.27;;;8.13;;
21825;SDS011;11075;47.944;11.776;2023-06-22T04:37:10;13.32;;;7.38;;
21825;SDS011;11075;47.944;11.776;2023-06-22T04:39:42;12.68;;;7.38;;
21825;SDS011;11075;47.944;11.776;2023-06-22T04:42:09;15.05;;;8.38;;
21825;SDS011;11075;47.944;11.776;2023-06-22T04:44:36;15.05;;;8.88;;
21825;SDS011;11075;47.944;11.776;2023-06-22T04:47:03;20.33;;;9.55;;
21825;SDS011;11075;47.944;11.776;2023-06-22T04:49:35;17.13;;;8.68;;
21825;SDS011;11075;47.944;11.776;2023-06-22T04:52:08;13.98;;;8.32;;
21825;SDS011;11075;47.944;11.776;2023-06-22T04:54:36;16.55;;;9.23;;
21825;SDS011;11075;47.944;11.776;2023-06-22T04:57:06;18.35;;;9.45;;
21825;SDS011;11075;47.944;11.776;2023-06-22T04:59:37;21.50;;;9.52;;
21825;SDS011;11075;47.944;11.776;2023-06-22T05:02:05;17.95;;;8.88;;
21825;SDS011;11075;47.944;11.776;2023-06-22T05:04:32;19.00;;;9.32;;
21825;SDS011;11075;47.944;11.776;2023-06-22T05:07:02;11.40;;;8.05;;
21825;SDS011;11075;47.944;11.776;2023-06-22T05:09:29;20.17;;;8.55;;
21825;SDS011;11075;47.944;11.776;2023-06-22T05:11:56;15.10;;;8.70;;
21825;SDS011;11075;47.944;11.776;2023-06-22T05:14:24;20.48;;;8.52;;
21825;SDS011;11075;47.944;11.776;2023-06-22T05:16:50;13.85;;;8.07;;
21825;SDS011;11075;47.944;11.776;2023-06-22T05:19:18;17.25;;;8.43;;
21825;SDS011;11075;47.944;11.776;2023-06-22T05:21:45;20.05;;;8.05;;
21825;SDS011;11075;47.944;11.776;2023-06-22T05:24:12;12.20;;;8.68;;
21825;SDS011;11075;47.944;11.776;2023-06-22T05:26:39;15.30;;;8.30;;
21825;SDS011;11075;47.944;11.776;2023-06-22T05:29:05;20.95;;;8.82;;
21825;SDS011;11075;47.944;11.776;2023-06-22T05:31:33;16.67;;;8.07;;
21825;SDS011;11075;47.944;11.776;2023-06-22T05:34:00;16.25;;;9.40;;
21825;SDS011;11075;47.944;11.776;2023-06-22T05:36:27;14.38;;;7.97;;
21825;SDS011;11075;47.944;11.776;2023-06-22T05:38:55;17.50;;;8.35;;
21825;SDS011;11075;47.944;11.776;2023-06-22T05:41:23;16.60;;;8.43;;
21825;SDS011;11075;47.944;11.776;2023-06-22T05:43:50;16.25;;;8.75;;
21825;SDS011;11075;47.944;11.776;2023-06-22T05:46:18;17.95;;;8.85;;
21825;SDS011;11075;47.944;11.776;2023-06-22T05:48:45;14.60;;;7.82;;
21825;SDS011;11075;47.944;11.776;2023-06-22T05:51:12;13.27;;;7.85;;
21825;SDS011;11075;47.944;11.776;2023-06-22T05:53:39;17.40;;;8.68;;
21825;SDS011;11075;47.944;11.776;2023-06-22T05:56:06;16.70;;;8.20;;
21825;SDS011;11075;47.944;11.776;2023-06-22T05:58:32;12.52;;;8.30;;
21825;SDS011;11075;47.944;11.776;2023-06-22T06:00:59;17.30;;;8.27;;
21825;SDS011;11075;47.944;11.776;2023-06-22T06:03:27;16.60;;;9.18;;
21825;SDS011;11075;47.944;11.776;2023-06-22T06:05:55;15.40;;;8.05;;
21825;SDS011;11075;47.944;11.776;2023-06-22T06:08:22;14.60;;;7.45;;
21825;SDS011;11075;47.944;11.776;2023-06-22T06:10:49;17.38;;;7.75;;
21825;SDS011;11075;47.944;11.776;2023-06-22T06:13:16;13.52;;;8.27;;
21825;SDS011;11075;47.944;11.776;2023-06-22T06:15:43;15.05;;;7.72;;
21825;SDS011;11075;47.944;11.776;2023-06-22T06:18:10;14.85;;;8.07;;
21825;SDS011;11075;47.944;11.776;2023-06-22T06:20:37;14.82;;;7.65;;
21825;SDS011;11075;47.944;11.776;2023-06-22T06:23:04;16.48;;;7.88;;
21825;SDS011;11075;47.944;11.776;2023-06-22T06:25:30;14.65;;;8.25;;
21825;SDS011;11075;47.944;11.776;2023-06-22T06:27:57;15.63;;;7.97;;
21825;SDS011;11075;47.944;11.776;2023-06-22T06:30:24;14.45;;;7.88;;
21825;SDS011;11075;47.944;11.776;2023-06-22T06:32:51;14.35;;;7.93;;
21825;SDS011;11075;47.944;11.776;2023-06-22T06:35:18;14.30;;;7.53;;
21825;SDS011;11075;47.944;11.776;2023-06-22T06:37:47;15.85;;;7.35;;
21825;SDS011;11075;47.944;11.776;2023-06-22T06:40:15;13.60;;;7.57;;
21825;SDS011;11075;47.944;11.776;2023-06-22T06:42:44;15.70;;;8.45;;
21825;SDS011;11075;47.944;11.776;2023-06-22T06:45:16;15.07;;;7.00;;
21825;SDS011;11075;47.944;11.776;2023-06-22T06:47:44;16.00;;;7.07;;
21825;SDS011;11075;47.944;11.776;2023-06-22T06:50:11;17.52;;;7.68;;
21825;SDS011;11075;47.944;11.776;2023-06-22T06:52:38;16.88;;;8.07;;
21825;SDS011;11075;47.944;11.776;2023-06-22T06:55:05;17.65;;;7.55;;
21825;SDS011;11075;47.944;11.776;2023-06-22T06:57:34;21.92;;;7.82;;
21825;SDS011;11075;47.944;11.776;2023-06-22T07:00:01;12.30;;;7.00;;
21825;SDS011;11075;47.944;11.776;2023-06-22T07:02:29;16.67;;;7.40;;
21825;SDS011;11075;47.944;11.776;2023-06-22T07:04:55;18.35;;;7.75;;
21825;SDS011;11075;47.944;11.776;2023-06-22T07:07:23;15.82;;;7.40;;
21825;SDS011;11075;47.944;11.776;2023-06-22T07:09:50;16.10;;;7.70;;
21825;SDS011;11075;47.944;11.776;2023-06-22T07:12:17;22.17;;;7.70;;
21825;SDS011;11075;47.944;11.776;2023-06-22T07:14:44;16.15;;;7.80;;
21825;SDS011;11075;47.944;11.776;2023-06-22T07:17:11;24.02;;;7.53;;
21825;SDS011;11075;47.944;11.776;2023-06-22T07:19:37;19.73;;;8.25;;
21825;SDS011;11075;47.944;11.776;2023-06-22T07:22:05;24.02;;;8.95;;
21825;SDS011;11075;47.944;11.776;2023-06-22T07:24:32;13.68;;;7.78;;
21825;SDS011;11075;47.944;11.776;2023-06-22T07:26:59;27.70;;;7.90;;
21825;SDS011;11075;47.944;11.776;2023-06-22T07:29:26;13.23;;;7.47;;
21825;SDS011;11075;47.944;11.776;2023-06-22T07:31:53;15.00;;;7.45;;
21825;SDS011;11075;47.944;11.776;2023-06-22T07:34:20;18.50;;;7.60;;
21825;SDS011;11075;47.944;11.776;2023-06-22T07:36:47;19.45;;;8.30;;
21825;SDS011;11075;47.944;11.776;2023-06-22T07:39:14;12.18;;;6.95;;
21825;SDS011;11075;47.944;11.776;2023-06-22T07:41:41;12.13;;;7.90;;
21825;SDS011;11075;47.944;11.776;2023-06-22T07:44:08;21.75;;;8.45;;
21825;SDS011;11075;47.944;11.776;2023-06-22T07:46:35;19.17;;;8.23;;
21825;SDS011;11075;47.944;11.776;2023-06-22T07:49:02;13.68;;;7.35;;
21825;SDS011;11075;47.944;11.776;2023-06-22T07:51:29;18.30;;;8.20;;
21825;SDS011;11075;47.944;11.776;2023-06-22T07:53:57;13.82;;;7.30;;
21825;SDS011;11075;47.944;11.776;2023-06-22T07:56:24;16.23;;;7.43;;
21825;SDS011;11075;47.944;11.776;2023-06-22T07:58:51;17.67;;;7.13;;
21825;SDS011;11075;47.944;11.776;2023-06-22T08:01:17;16.48;;;7.47;;
21825;SDS011;11075;47.944;11.776;2023-06-22T08:03:48;12.30;;;7.25;;
21825;SDS011;11075;47.944;11.776;2023-06-22T08:06:15;17.23;;;8.88;;
21825;SDS011;11075;47.944;11.776;2023-06-22T08:08:42;15.85;;;7.38;;
21825;SDS011;11075;47.944;11.776;2023-06-22T08:11:09;22.13;;;8.23;;
21825;SDS011;11075;47.944;11.776;2023-06-22T08:13:36;16.35;;;8.13;;
21825;SDS011;11075;47.944;11.776;2023-06-22T08:16:03;14.77;;;7.80;;
21825;SDS011;11075;47.944;11.776;2023-06-22T08:18:33;15.30;;;7.47;;
21825;SDS011;11075;47.944;11.776;2023-06-22T08:21:00;19.65;;;8.48;;
21825;SDS011;11075;47.944;11.776;2023-06-22T08:23:30;17.23;;;7.70;;
21825;SDS011;11075;47.944;11.776;2023-06-22T08:25:57;17.70;;;7.75;;
21825;SDS011;11075;47.944;11.776;2023-06-22T08:28:24;21.58;;;8.38;;
21825;SDS011;11075;47.944;11.776;2023-06-22T08:30:51;19.65;;;8.05;;
21825;SDS011;11075;47.944;11.776;2023-06-22T08:33:18;15.43;;;7.68;;
21825;SDS011;11075;47.944;11.776;2023-06-22T08:35:53;14.73;;;7.05;;
21825;SDS011;11075;47.944;11.776;2023-06-22T08:38:19;18.00;;;7.75;;
21825;SDS011;11075;47.944;11.776;2023-06-22T08:40:46;13.02;;;7.03;;
21825;SDS011;11075;47.944;11.776;2023-06-22T08:43:14;19.77;;;7.00;;
21825;SDS011;11075;47.944;11.776;2023-06-22T08:45:41;16.40;;;8.02;;
21825;SDS011;11075;47.944;11.776;2023-06-22T08:48:09;12.27;;;6.90;;
21825;SDS011;11075;47.944;11.776;2023-06-22T08:50:36;15.30;;;6.53;;
21825;SDS011;11075;47.944;11.776;2023-06-22T08:53:03;15.88;;;7.72;;
21825;SDS011;11075;47.944;11.776;2023-06-22T08:55:29;16.08;;;7.43;;
21825;SDS011;11075;47.944;11.776;2023-06-22T08:57:57;14.85;;;7.47;;
21825;SDS011;11075;47.944;11.776;2023-06-22T09:00:24;17.33;;;7.07;;
21825;SDS011;11075;47.944;11.776;2023-06-22T09:02:51;16.95;;;7.88;;
21825;SDS011;11075;47.944;11.776;2023-06-22T09:05:18;22.20;;;8.27;;
21825;SDS011;11075;47.944;11.776;2023-06-22T09:07:45;14.50;;;7.32;;
21825;SDS011;11075;47.944;11.776;2023-06-22T09:10:12;11.75;;;7.22;;
21825;SDS011;11075;47.944;11.776;2023-06-22T09:12:39;15.27;;;7.28;;
21825;SDS011;11075;47.944;11.776;2023-06-22T09:15:06;20.92;;;7.93;;
21825;SDS011;11075;47.944;11.776;2023-06-22T09:17:38;15.70;;;6.65;;
21825;SDS011;11075;47.944;11.776;2023-06-22T09:20:05;19.42;;;7.50;;
21825;SDS011;11075;47.944;11.776;2023-06-22T09:22:33;22.25;;;6.68;;
21825;SDS011;11075;47.944;11.776;2023-06-22T09:25:00;22.80;;;7.97;;
21825;SDS011;11075;47.944;11.776;2023-06-22T09:27:27;16.55;;;7.32;;
21825;SDS011;11075;47.944;11.776;2023-06-22T09:29:54;17.35;;;7.50;;
21825;SDS011;11075;47.944;11.776;2023-06-22T09:32:21;16.88;;;7.45;;
21825;SDS011;11075;47.944;11.776;2023-06-22T09:34:48;15.73;;;6.72;;
21825;SDS011;11075;47.944;11.776;2023-06-22T09:37:15;17.10;;;7.00;;
21825;SDS011;11075;47.944;11.776;2023-06-22T09:39:42;13.50;;;6.78;;
21825;SDS011;11075;47.944;11.776;2023-06-22T09:42:09;14.23;;;7.18;;
21825;SDS011;11075;47.944;11.776;2023-06-22T09:44:36;17.98;;;6.75;;
21825;SDS011;11075;47.944;11.776;2023-06-22T09:47:02;14.65;;;7.22;;
21825;SDS011;11075;47.944;11.776;2023-06-22T09:49:29;12.05;;;6.47;;
21825;SDS011;11075;47.944;11.776;2023-06-22T09:52:13;22.67;;;7.20;;
21825;SDS011;11075;47.944;11.776;2023-06-22T09:54:40;15.30;;;7.25;;
21825;SDS011;11075;47.944;11.776;2023-06-22T09:57:07;13.90;;;7.00;;
21825;SDS011;11075;47.944;11.776;2023-06-22T09:59:34;13.40;;;6.40;;
21825;SDS011;11075;47.944;11.776;2023-06-22T10:02:00;19.65;;;6.97;;
21825;SDS011;11075;47.944;11.776;2023-06-22T10:04:27;19.63;;;6.10;;
21825;SDS011;11075;47.944;11.776;2023-06-22T10:06:55;18.23;;;6.60;;
21825;SDS011;11075;47.944;11.776;2023-06-22T10:09:23;15.13;;;6.95;;
21825;SDS011;11075;47.944;11.776;2023-06-22T10:11:49;14.75;;;6.32;;
21825;SDS011;11075;47.944;11.776;2023-06-22T10:14:16;18.00;;;6.63;;
21825;SDS011;11075;47.944;11.776;2023-06-22T10:16:43;15.60;;;7.80;;
21825;SDS011;11075;47.944;11.776;2023-06-22T10:19:10;16.25;;;7.28;;
21825;SDS011;11075;47.944;11.776;2023-06-22T10:21:37;20.52;;;6.88;;
21825;SDS011;11075;47.944;11.776;2023-06-22T10:24:04;20.88;;;7.40;;
21825;SDS011;11075;47.944;11.776;2023-06-22T10:26:35;13.02;;;6.35;;
21825;SDS011;11075;47.944;11.776;2023-06-22T10:29:03;13.85;;;6.57;;
21825;SDS011;11075;47.944;11.776;2023-06-22T10:31:42;19.33;;;6.82;;
21825;SDS011;11075;47.944;11.776;2023-06-22T10:34:10;15.45;;;6.78;;
21825;SDS011;11075;47.944;11.776;2023-06-22T10:36:37;24.98;;;7.38;;
21825;SDS011;11075;47.944;11.776;2023-06-22T10:39:04;13.77;;;6.55;;
21825;SDS011;11075;47.944;11.776;2023-06-22T10:41:32;15.75;;;6.72;;
21825;SDS011;11075;47.944;11.776;2023-06-22T10:43:58;15.95;;;6.75;;
21825;SDS011;11075;47.944;11.776;2023-06-22T10:46:25;15.88;;;6.40;;
21825;SDS011;11075;47.944;11.776;2023-06-22T10:48:52;18.13;;;7.03;;
21825;SDS011;11075;47.944;11.776;2023-06-22T10:51:21;12.73;;;5.78;;
21825;SDS011;11075;47.944;11.776;2023-06-22T10:53:48;19.85;;;6.85;;
21825;SDS011;11075;47.944;11.776;2023-06-22T10:56:18;19.63;;;6.47;;
21825;SDS011;11075;47.944;11.776;2023-06-22T10:58:45;16.35;;;5.70;;
21825;SDS011;11075;47.944;11.776;2023-06-22T11:01:13;16.15;;;6.00;;
21825;SDS011;11075;47.944;11.776;2023-06-22T11:04:00;15.93;;;6.40;;
21825;SDS011;11075;47.944;11.776;2023-06-22T11:06:27;20.40;;;5.93;;
21825;SDS011;11075;47.944;11.776;2023-06-22T11:08:54;20.40;;;6.50;;
21825;SDS011;11075;47.944;11.776;2023-06-22T11:11:37;21.45;;;7.25;;
21825;SDS011;11075;47.944;11.776;2023-06-22T11:14:04;20.38;;;6.47;;
21825;SDS011;11075;47.944;11.776;2023-06-22T11:16:31;14.18;;;6.35;;
21825;SDS011;11075;47.944;11.776;2023-06-22T11:18:58;12.55;;;6.15;;
21825;SDS011;11075;47.944;11.776;2023-06-22T11:21:25;17.80;;;6.50;;
21825;SDS011;11075;47.944;11.776;2023-06-22T11:23:51;17.02;;;6.63;;
21825;SDS011;11075;47.944;11.776;2023-06-22T11:26:18;22.00;;;5.78;;
21825;SDS011;11075;47.944;11.776;2023-06-22T11:28:45;15.27;;;5.68;;
21825;SDS011;11075;47.944;11.776;2023-06-22T11:31:12;16.02;;;5.20;;
21825;SDS011;11075;47.944;11.776;2023-06-22T11:33:52;19.83;;;6.35;;
21825;SDS011;11075;47.944;11.776;2023-06-22T11:36:19;14.90;;;6.32;;
21825;SDS011;11075;47.944;11.776;2023-06-22T11:38:46;19.85;;;6.22;;
21825;SDS011;11075;47.944;11.776;2023-06-22T11:41:13;16.33;;;5.97;;
21825;SDS011;11075;47.944;11.776;2023-06-22T11:43:39;19.38;;;6.50;;
21825;SDS011;11075;47.944;11.776;2023-06-22T11:46:06;18.83;;;6.25;;
21825;SDS011;11075;47.944;11.776;2023-06-22T11:48:33;18.60;;;7.38;;
21825;SDS011;11075;47.944;11.776;2023-06-22T11:51:00;26.45;;;6.80;;
21825;SDS011;11075;47.944;11.776;2023-06-22T11:53:29;17.58;;;6.05;;
21825;SDS011;11075;47.944;11.776;2023-06-22T11:55:56;15.75;;;6.35;;
21825;SDS011;11075;47.944;11.776;2023-06-22T11:58:23;20.08;;;6.93;;
21825;SDS011;11075;47.944;11.776;2023-06-22T12:00:50;15.52;;;6.05;;
21825;SDS011;11075;47.944;11.776;2023-06-22T12:03:19;17.98;;;6.45;;
21825;SDS011;11075;47.944;11.776;2023-06-22T12:05:46;14.55;;;6.88;;
21825;SDS011;11075;47.944;11.776;2023-06-22T12:08:13;22.38;;;7.05;;
21825;SDS011;11075;47.944;11.776;2023-06-22T12:10:40;17.10;;;6.63;;
21825;SDS011;11075;47.944;11.776;2023-06-22T12:13:07;18.25;;;6.72;;
21825;SDS011;11075;47.944;11.776;2023-06-22T12:15:34;19.70;;;6.10;;
21825;SDS011;11075;47.944;11.776;2023-06-22T12:18:01;13.05;;;6.35;;
21825;SDS011;11075;47.944;11.776;2023-06-22T12:20:28;22.63;;;6.90;;
21825;SDS011;11075;47.944;11.776;2023-06-22T12:22:55;16.42;;;6.05;;
21825;SDS011;11075;47.944;11.776;2023-06-22T12:25:24;17.63;;;6.75;;
21825;SDS011;11075;47.944;11.776;2023-06-22T12:27:51;13.75;;;5.82;;
21825;SDS011;11075;47.944;11.776;2023-06-22T12:30:18;12.38;;;5.85;;
21825;SDS011;11075;47.944;11.776;2023-06-22T12:32:45;18.58;;;6.47;;
21825;SDS011;11075;47.944;11.776;2023-06-22T12:35:12;21.58;;;6.68;;
21825;SDS011;11075;47.944;11.776;2023-06-22T12:37:41;17.50;;;6.45;;
21825;SDS011;11075;47.944;11.776;2023-06-22T12:40:09;15.90;;;7.03;;
21825;SDS011;11075;47.944;11.776;2023-06-22T12:42:36;17.27;;;6.25;;
21825;SDS011;11075;47.944;11.776;2023-06-22T12:45:03;14.70;;;6.45;;
21825;SDS011;11075;47.944;11.776;2023-06-22T12:47:31;14.70;;;6.35;;
21825;SDS011;11075;47.944;11.776;2023-06-22T12:49:58;15.77;;;6.38;;
21825;SDS011;11075;47.944;11.776;2023-06-22T12:52:25;21.80;;;5.93;;
21825;SDS011;11075;47.944;11.776;2023-06-22T12:54:52;19.92;;;6.72;;
21825;SDS011;11075;47.944;11.776;2023-06-22T12:57:21;16.50;;;7.10;;
21825;SDS011;11075;47.944;11.776;2023-06-22T12:59:48;14.45;;;6.40;;
21825;SDS011;11075;47.944;11.776;2023-06-22T13:02:15;19.92;;;6.10;;
21825;SDS011;11075;47.944;11.776;2023-06-22T13:04:42;16.13;;;6.45;;
21825;SDS011;11075;47.944;11.776;2023-06-22T13:07:09;13.32;;;6.07;;
21825;SDS011;11075;47.944;11.776;2023-06-22T13:09:48;23.63;;;7.22;;
21825;SDS011;11075;47.944;11.776;2023-06-22T13:12:19;15.98;;;5.93;;
21825;SDS011;11075;47.944;11.776;2023-06-22T13:14:47;19.83;;;7.10;;
21825;SDS011;11075;47.944;11.776;2023-06-22T13:17:15;19.92;;;6.32;;
21825;SDS011;11075;47.944;11.776;2023-06-22T13:19:42;16.13;;;5.60;;
21825;SDS011;11075;47.944;11.776;2023-06-22T13:22:25;13.48;;;5.72;;
21825;SDS011;11075;47.944;11.776;2023-06-22T13:25:10;22.38;;;5.97;;
21825;SDS011;11075;47.944;11.776;2023-06-22T13:27:52;15.23;;;6.75;;
21825;SDS011;11075;47.944;11.776;2023-06-22T13:30:19;20.13;;;6.75;;
21825;SDS011;11075;47.944;11.776;2023-06-22T13:32:45;16.17;;;6.30;;
21825;SDS011;11075;47.944;11.776;2023-06-22T13:35:12;15.75;;;6.03;;
21825;SDS011;11075;47.944;11.776;2023-06-22T13:37:39;15.82;;;6.30;;
21825;SDS011;11075;47.944;11.776;2023-06-22T13:40:07;21.27;;;6.50;;
21825;SDS011;11075;47.944;11.776;2023-06-22T13:42:34;22.00;;;6.50;;
21825;SDS011;11075;47.944;11.776;2023-06-22T13:45:02;19.55;;;6.03;;
21825;SDS011;11075;47.944;11.776;2023-06-22T13:47:29;15.80;;;5.22;;
21825;SDS011;11075;47.944;11.776;2023-06-22T13:49:57;20.75;;;6.22;;
21825;SDS011;11075;47.944;11.776;2023-06-22T13:52:24;13.82;;;5.60;;
21825;SDS011;11075;47.944;11.776;2023-06-22T13:54:52;20.05;;;6.25;;
21825;SDS011;11075;47.944;11.776;2023-06-22T13:57:19;15.88;;;5.60;;
21825;SDS011;11075;47.944;11.776;2023-06-22T13:59:45;28.40;;;6.35;;
21825;SDS011;11075;47.944;11.776;2023-06-22T14:02:12;19.35;;;6.15;;
21825;SDS011;11075;47.944;11.776;2023-06-22T14:04:39;15.05;;;5.53;;
21825;SDS011;11075;47.944;11.776;2023-06-22T14:07:06;17.05;;;6.03;;
21825;SDS011;11075;47.944;11.776;2023-06-22T14:09:33;14.65;;;6.10;;
21825;SDS011;11075;47.944;11.776;2023-06-22T14:12:04;14.95;;;6.15;;
21825;SDS011;11075;47.944;11.776;2023-06-22T14:14:32;16.60;;;5.15;;
21825;SDS011;11075;47.944;11.776;2023-06-22T14:16:59;13.75;;;5.38;;
21825;SDS011;11075;47.944;11.776;2023-06-22T14:19:27;14.18;;;6.13;;
21825;SDS011;11075;47.944;11.776;2023-06-22T14:21:54;20.73;;;6.10;;
21825;SDS011;11075;47.944;11.776;2023-06-22T14:24:21;19.08;;;5.38;;
21825;SDS011;11075;47.944;11.776;2023-06-22T14:26:51;18.23;;;5.80;;
21825;SDS011;11075;47.944;11.776;2023-06-22T14:29:19;16.55;;;5.22;;
21825;SDS011;11075;47.944;11.776;2023-06-22T14:31:46;19.50;;;6.15;;